Estación Meteorológica Peña el Pijo (Robertgarden) [ 01/30/23 15:38:10 CET ]

Fecha Hora Presion(HPa) Temp (°C) Humedad % Rocio (°C) Viento ( m/s) Direccion Lluvia 1Hora(mm) Lluvia 24H(mm) LLuvia Total(mm)
2012-May-01 01:01:12 1008.100 3.1 78 -0.4         158.50
2012-May-01 02:01:18 1007.800 2.1 80 -1.0         158.50
2012-May-01 03:04:02 1007.400 1.8 82 -1.0         158.50
2012-May-01 04:01:16 1007.100 1.1 84 -1.4         158.50
2012-May-01 05:01:13 1007.000 1.2 85 -1.1         158.50
2012-May-01 06:01:16 1006.900 0.4 87 -1.5         158.50
2012-May-01 07:01:14 1007.300 0.1 87 -1.8         158.50
2012-May-01 08:01:12 1007.700 0.9 89 -0.8         158.50
2012-May-01 09:01:14 1007.600 6.5 77 2.7         158.50
2012-May-01 10:01:18 1007.200 11.4 58 3.4         158.50
2012-May-01 11:01:18 1007.700 11.3 47 0.3         158.50
2012-May-01 12:01:19 1007.900 14.4 38 0.2 0.9 E     158.50
2012-May-01 13:01:12 1007.500 15.9 36 0.7         158.50
2012-May-01 14:01:13 1006.800 14.9 35 -0.5 4.4 NNE     158.50
2012-May-01 15:01:17 1005.900 17.3 33 0.8         158.50
2012-May-01 16:01:14 1005.500 17.3 34 1.2 1.1 ENE     158.50
2012-May-01 17:01:14 1005.300 17.7 31 0.3         158.50
2012-May-01 18:01:12 1005.200 14.9 34 -0.9         158.50
2012-May-01 19:01:19 1005.100 13.9 36 -1.1         158.50
2012-May-01 20:01:19 1005.200 12.9 39 -0.8         158.50
2012-May-01 21:01:12 1005.800 11.5 46 0.2         158.50
2012-May-01 22:01:19 1006.300 9.9 52 0.5         158.50
2012-May-01 23:01:16 1007.200 8.4 57 0.3         158.50

Temperatura Máxima:17°    Temperatura Mínima:
Presión Máxima:1008.100 Hpa    Presión Mínima:1005.100 Hpa


Volver